sensor_id;sensor_type;location;lat;lon;timestamp;P1;durP1;ratioP1;P2;durP2;ratioP2
40339;SDS011;26044;50.864;20.658;2022-08-20T00:02:08;21.08;;;10.05;;
40339;SDS011;26044;50.864;20.658;2022-08-20T00:04:35;21.80;;;10.77;;
40339;SDS011;26044;50.864;20.658;2022-08-20T00:07:04;20.52;;;9.60;;
40339;SDS011;26044;50.864;20.658;2022-08-20T00:12:06;22.08;;;9.65;;
40339;SDS011;26044;50.864;20.658;2022-08-20T00:14:35;21.55;;;8.70;;
40339;SDS011;26044;50.864;20.658;2022-08-20T00:17:02;23.13;;;9.68;;
40339;SDS011;26044;50.864;20.658;2022-08-20T00:19:29;22.30;;;10.00;;
40339;SDS011;26044;50.864;20.658;2022-08-20T00:21:56;20.58;;;9.23;;
40339;SDS011;26044;50.864;20.658;2022-08-20T00:24:24;23.13;;;10.65;;
40339;SDS011;26044;50.864;20.658;2022-08-20T00:26:51;23.80;;;9.32;;
40339;SDS011;26044;50.864;20.658;2022-08-20T00:29:18;22.45;;;10.50;;
40339;SDS011;26044;50.864;20.658;2022-08-20T00:31:47;25.52;;;9.93;;
40339;SDS011;26044;50.864;20.658;2022-08-20T00:34:15;19.73;;;9.52;;
40339;SDS011;26044;50.864;20.658;2022-08-20T00:36:42;24.67;;;9.95;;
40339;SDS011;26044;50.864;20.658;2022-08-20T00:39:11;22.00;;;8.73;;
40339;SDS011;26044;50.864;20.658;2022-08-20T00:41:38;21.95;;;10.05;;
40339;SDS011;26044;50.864;20.658;2022-08-20T00:46:37;18.92;;;9.95;;
40339;SDS011;26044;50.864;20.658;2022-08-20T00:49:08;21.10;;;10.13;;
40339;SDS011;26044;50.864;20.658;2022-08-20T00:51:47;19.52;;;10.27;;
40339;SDS011;26044;50.864;20.658;2022-08-20T00:54:20;25.05;;;10.93;;
40339;SDS011;26044;50.864;20.658;2022-08-20T00:56:53;21.70;;;10.30;;
40339;SDS011;26044;50.864;20.658;2022-08-20T00:59:29;19.50;;;9.70;;
40339;SDS011;26044;50.864;20.658;2022-08-20T01:04:28;19.17;;;9.88;;
40339;SDS011;26044;50.864;20.658;2022-08-20T01:06:59;20.65;;;9.43;;
40339;SDS011;26044;50.864;20.658;2022-08-20T01:09:26;21.67;;;9.77;;
40339;SDS011;26044;50.864;20.658;2022-08-20T01:12:14;20.90;;;9.90;;
40339;SDS011;26044;50.864;20.658;2022-08-20T01:14:42;23.20;;;10.20;;
40339;SDS011;26044;50.864;20.658;2022-08-20T01:17:10;26.90;;;11.13;;
40339;SDS011;26044;50.864;20.658;2022-08-20T01:19:46;26.17;;;10.52;;
40339;SDS011;26044;50.864;20.658;2022-08-20T01:25:41;23.10;;;9.70;;
40339;SDS011;26044;50.864;20.658;2022-08-20T01:28:12;21.42;;;10.05;;
40339;SDS011;26044;50.864;20.658;2022-08-20T01:30:44;24.40;;;10.65;;
40339;SDS011;26044;50.864;20.658;2022-08-20T01:33:10;20.70;;;9.95;;
40339;SDS011;26044;50.864;20.658;2022-08-20T01:35:38;21.75;;;9.73;;
40339;SDS011;26044;50.864;20.658;2022-08-20T01:38:07;21.40;;;10.65;;
40339;SDS011;26044;50.864;20.658;2022-08-20T01:43:37;22.42;;;10.00;;
40339;SDS011;26044;50.864;20.658;2022-08-20T01:46:09;23.67;;;9.20;;
40339;SDS011;26044;50.864;20.658;2022-08-20T01:48:37;29.17;;;10.45;;
40339;SDS011;26044;50.864;20.658;2022-08-20T01:53:35;21.47;;;9.73;;
40339;SDS011;26044;50.864;20.658;2022-08-20T01:56:05;21.05;;;9.43;;
40339;SDS011;26044;50.864;20.658;2022-08-20T01:58:37;19.52;;;8.85;;
40339;SDS011;26044;50.864;20.658;2022-08-20T02:01:17;20.60;;;9.32;;
40339;SDS011;26044;50.864;20.658;2022-08-20T02:03:47;22.38;;;8.57;;
40339;SDS011;26044;50.864;20.658;2022-08-20T02:06:15;21.10;;;9.10;;
40339;SDS011;26044;50.864;20.658;2022-08-20T02:08:42;23.73;;;9.30;;
40339;SDS011;26044;50.864;20.658;2022-08-20T02:11:10;22.33;;;9.07;;
40339;SDS011;26044;50.864;20.658;2022-08-20T02:13:38;21.48;;;8.95;;
40339;SDS011;26044;50.864;20.658;2022-08-20T02:16:06;22.08;;;9.18;;
40339;SDS011;26044;50.864;20.658;2022-08-20T02:18:33;20.25;;;9.20;;
40339;SDS011;26044;50.864;20.658;2022-08-20T02:21:00;19.48;;;8.48;;
40339;SDS011;26044;50.864;20.658;2022-08-20T02:23:27;20.55;;;8.98;;
40339;SDS011;26044;50.864;20.658;2022-08-20T02:25:54;25.38;;;10.05;;
40339;SDS011;26044;50.864;20.658;2022-08-20T02:28:21;21.25;;;9.90;;
40339;SDS011;26044;50.864;20.658;2022-08-20T02:30:49;24.58;;;9.68;;
40339;SDS011;26044;50.864;20.658;2022-08-20T02:33:18;22.58;;;9.85;;
40339;SDS011;26044;50.864;20.658;2022-08-20T02:35:49;24.30;;;9.88;;
40339;SDS011;26044;50.864;20.658;2022-08-20T02:38:18;20.88;;;9.07;;
40339;SDS011;26044;50.864;20.658;2022-08-20T02:40:46;19.85;;;9.52;;
40339;SDS011;26044;50.864;20.658;2022-08-20T02:43:15;25.38;;;9.20;;
40339;SDS011;26044;50.864;20.658;2022-08-20T02:45:45;19.00;;;9.50;;
40339;SDS011;26044;50.864;20.658;2022-08-20T02:48:13;25.13;;;10.10;;
40339;SDS011;26044;50.864;20.658;2022-08-20T02:50:51;22.27;;;9.73;;
40339;SDS011;26044;50.864;20.658;2022-08-20T02:53:19;26.35;;;10.25;;
40339;SDS011;26044;50.864;20.658;2022-08-20T02:55:49;18.80;;;8.60;;
40339;SDS011;26044;50.864;20.658;2022-08-20T02:58:16;25.52;;;9.98;;
40339;SDS011;26044;50.864;20.658;2022-08-20T03:00:44;22.95;;;9.50;;
40339;SDS011;26044;50.864;20.658;2022-08-20T03:03:13;20.90;;;8.80;;
40339;SDS011;26044;50.864;20.658;2022-08-20T03:05:41;18.58;;;9.13;;
40339;SDS011;26044;50.864;20.658;2022-08-20T03:08:10;21.40;;;9.15;;
40339;SDS011;26044;50.864;20.658;2022-08-20T03:13:07;19.90;;;8.82;;
40339;SDS011;26044;50.864;20.658;2022-08-20T03:15:39;21.20;;;9.13;;
40339;SDS011;26044;50.864;20.658;2022-08-20T03:18:07;22.95;;;9.82;;
40339;SDS011;26044;50.864;20.658;2022-08-20T03:20:35;23.83;;;9.95;;
40339;SDS011;26044;50.864;20.658;2022-08-20T03:23:01;22.80;;;9.48;;
40339;SDS011;26044;50.864;20.658;2022-08-20T03:25:29;22.85;;;9.48;;
40339;SDS011;26044;50.864;20.658;2022-08-20T03:27:56;20.25;;;8.48;;
40339;SDS011;26044;50.864;20.658;2022-08-20T03:30:24;21.42;;;9.32;;
40339;SDS011;26044;50.864;20.658;2022-08-20T03:32:52;22.05;;;9.77;;
40339;SDS011;26044;50.864;20.658;2022-08-20T03:35:20;21.85;;;8.73;;
40339;SDS011;26044;50.864;20.658;2022-08-20T03:37:49;23.42;;;9.13;;
40339;SDS011;26044;50.864;20.658;2022-08-20T03:40:17;21.48;;;8.43;;
40339;SDS011;26044;50.864;20.658;2022-08-20T03:42:47;19.05;;;8.48;;
40339;SDS011;26044;50.864;20.658;2022-08-20T03:45:14;20.02;;;9.10;;
40339;SDS011;26044;50.864;20.658;2022-08-20T03:47:45;20.05;;;9.07;;
40339;SDS011;26044;50.864;20.658;2022-08-20T03:50:13;19.98;;;8.75;;
40339;SDS011;26044;50.864;20.658;2022-08-20T03:52:49;21.48;;;9.27;;
40339;SDS011;26044;50.864;20.658;2022-08-20T03:55:18;23.60;;;9.80;;
40339;SDS011;26044;50.864;20.658;2022-08-20T03:57:47;22.95;;;9.73;;
40339;SDS011;26044;50.864;20.658;2022-08-20T04:00:22;22.48;;;8.95;;
40339;SDS011;26044;50.864;20.658;2022-08-20T04:02:54;23.70;;;8.93;;
40339;SDS011;26044;50.864;20.658;2022-08-20T04:05:23;23.48;;;9.40;;
40339;SDS011;26044;50.864;20.658;2022-08-20T04:07:53;22.60;;;9.38;;
40339;SDS011;26044;50.864;20.658;2022-08-20T04:12:50;22.60;;;10.23;;
40339;SDS011;26044;50.864;20.658;2022-08-20T04:15:19;23.75;;;9.85;;
40339;SDS011;26044;50.864;20.658;2022-08-20T04:17:47;23.85;;;10.27;;
40339;SDS011;26044;50.864;20.658;2022-08-20T04:20:16;22.25;;;9.85;;
40339;SDS011;26044;50.864;20.658;2022-08-20T04:22:53;24.27;;;9.95;;
40339;SDS011;26044;50.864;20.658;2022-08-20T04:25:25;24.13;;;10.30;;
40339;SDS011;26044;50.864;20.658;2022-08-20T04:27:55;22.45;;;10.10;;
40339;SDS011;26044;50.864;20.658;2022-08-20T04:30:24;24.80;;;11.50;;
40339;SDS011;26044;50.864;20.658;2022-08-20T04:32:51;22.73;;;11.18;;
40339;SDS011;26044;50.864;20.658;2022-08-20T04:35:19;28.58;;;11.95;;
40339;SDS011;26044;50.864;20.658;2022-08-20T04:37:46;27.30;;;11.52;;
40339;SDS011;26044;50.864;20.658;2022-08-20T04:40:16;27.65;;;10.88;;
40339;SDS011;26044;50.864;20.658;2022-08-20T04:43:03;21.75;;;10.25;;
40339;SDS011;26044;50.864;20.658;2022-08-20T04:45:31;26.67;;;11.35;;
40339;SDS011;26044;50.864;20.658;2022-08-20T04:48:02;24.88;;;10.63;;
40339;SDS011;26044;50.864;20.658;2022-08-20T04:50:31;24.75;;;10.40;;
40339;SDS011;26044;50.864;20.658;2022-08-20T04:53:06;22.85;;;9.40;;
40339;SDS011;26044;50.864;20.658;2022-08-20T04:55:36;24.00;;;10.40;;
40339;SDS011;26044;50.864;20.658;2022-08-20T04:58:07;25.50;;;10.80;;
40339;SDS011;26044;50.864;20.658;2022-08-20T05:00:36;23.77;;;10.43;;
40339;SDS011;26044;50.864;20.658;2022-08-20T05:03:03;25.75;;;10.13;;
40339;SDS011;26044;50.864;20.658;2022-08-20T05:05:34;23.05;;;9.15;;
40339;SDS011;26044;50.864;20.658;2022-08-20T05:08:01;27.95;;;9.00;;
40339;SDS011;26044;50.864;20.658;2022-08-20T05:10:29;21.52;;;8.30;;
40339;SDS011;26044;50.864;20.658;2022-08-20T05:12:55;22.52;;;8.82;;
40339;SDS011;26044;50.864;20.658;2022-08-20T05:15:23;19.45;;;8.35;;
40339;SDS011;26044;50.864;20.658;2022-08-20T05:17:55;21.55;;;9.05;;
40339;SDS011;26044;50.864;20.658;2022-08-20T05:20:25;18.48;;;7.70;;
40339;SDS011;26044;50.864;20.658;2022-08-20T05:22:57;22.42;;;7.97;;
40339;SDS011;26044;50.864;20.658;2022-08-20T05:25:26;20.95;;;9.07;;
40339;SDS011;26044;50.864;20.658;2022-08-20T05:28:00;22.63;;;8.27;;
40339;SDS011;26044;50.864;20.658;2022-08-20T05:30:38;19.40;;;8.52;;
40339;SDS011;26044;50.864;20.658;2022-08-20T05:33:07;21.85;;;8.90;;
40339;SDS011;26044;50.864;20.658;2022-08-20T05:35:35;23.98;;;10.75;;
40339;SDS011;26044;50.864;20.658;2022-08-20T05:38:07;26.00;;;9.98;;
40339;SDS011;26044;50.864;20.658;2022-08-20T05:40:37;24.80;;;10.75;;
40339;SDS011;26044;50.864;20.658;2022-08-20T05:43:05;27.90;;;12.73;;
40339;SDS011;26044;50.864;20.658;2022-08-20T05:45:33;22.02;;;10.48;;
40339;SDS011;26044;50.864;20.658;2022-08-20T05:48:08;25.67;;;11.73;;
40339;SDS011;26044;50.864;20.658;2022-08-20T05:50:38;24.88;;;11.77;;
40339;SDS011;26044;50.864;20.658;2022-08-20T05:53:07;26.23;;;12.25;;
40339;SDS011;26044;50.864;20.658;2022-08-20T05:55:34;23.67;;;11.43;;
40339;SDS011;26044;50.864;20.658;2022-08-20T05:58:06;25.45;;;10.27;;
40339;SDS011;26044;50.864;20.658;2022-08-20T06:00:39;24.15;;;10.68;;
40339;SDS011;26044;50.864;20.658;2022-08-20T06:03:06;24.50;;;10.27;;
40339;SDS011;26044;50.864;20.658;2022-08-20T06:05:52;22.92;;;10.35;;
40339;SDS011;26044;50.864;20.658;2022-08-20T06:08:19;22.67;;;10.05;;
40339;SDS011;26044;50.864;20.658;2022-08-20T06:10:45;21.98;;;10.70;;
40339;SDS011;26044;50.864;20.658;2022-08-20T06:13:12;23.48;;;11.07;;
40339;SDS011;26044;50.864;20.658;2022-08-20T06:15:39;26.85;;;12.10;;
40339;SDS011;26044;50.864;20.658;2022-08-20T06:18:07;26.00;;;11.80;;
40339;SDS011;26044;50.864;20.658;2022-08-20T06:20:54;26.27;;;10.85;;
40339;SDS011;26044;50.864;20.658;2022-08-20T06:23:21;30.42;;;12.38;;
40339;SDS011;26044;50.864;20.658;2022-08-20T06:25:50;22.23;;;10.40;;
40339;SDS011;26044;50.864;20.658;2022-08-20T06:28:17;31.48;;;12.77;;
40339;SDS011;26044;50.864;20.658;2022-08-20T06:30:44;34.97;;;16.15;;
40339;SDS011;26044;50.864;20.658;2022-08-20T06:33:11;27.42;;;12.68;;
40339;SDS011;26044;50.864;20.658;2022-08-20T06:35:38;25.30;;;10.25;;
40339;SDS011;26044;50.864;20.658;2022-08-20T06:38:08;25.30;;;10.75;;
40339;SDS011;26044;50.864;20.658;2022-08-20T06:40:38;23.35;;;9.65;;
40339;SDS011;26044;50.864;20.658;2022-08-20T06:43:04;19.77;;;10.45;;
40339;SDS011;26044;50.864;20.658;2022-08-20T06:45:34;20.60;;;9.95;;
40339;SDS011;26044;50.864;20.658;2022-08-20T06:48:04;24.83;;;10.52;;
40339;SDS011;26044;50.864;20.658;2022-08-20T06:50:34;21.33;;;9.50;;
40339;SDS011;26044;50.864;20.658;2022-08-20T06:53:13;24.98;;;9.93;;
40339;SDS011;26044;50.864;20.658;2022-08-20T06:55:43;27.08;;;9.65;;
40339;SDS011;26044;50.864;20.658;2022-08-20T06:58:17;20.08;;;8.73;;
40339;SDS011;26044;50.864;20.658;2022-08-20T07:01:04;21.48;;;9.55;;
40339;SDS011;26044;50.864;20.658;2022-08-20T07:03:39;18.15;;;8.90;;
40339;SDS011;26044;50.864;20.658;2022-08-20T07:06:21;20.45;;;9.05;;
40339;SDS011;26044;50.864;20.658;2022-08-20T07:11:18;18.65;;;8.50;;
40339;SDS011;26044;50.864;20.658;2022-08-20T07:13:52;22.77;;;8.35;;
40339;SDS011;26044;50.864;20.658;2022-08-20T07:16:19;19.88;;;8.10;;
40339;SDS011;26044;50.864;20.658;2022-08-20T07:18:46;19.75;;;7.82;;
40339;SDS011;26044;50.864;20.658;2022-08-20T07:21:13;16.90;;;7.35;;
40339;SDS011;26044;50.864;20.658;2022-08-20T07:23:41;20.83;;;7.70;;
40339;SDS011;26044;50.864;20.658;2022-08-20T07:26:08;19.92;;;6.85;;
40339;SDS011;26044;50.864;20.658;2022-08-20T07:28:34;16.15;;;6.93;;
40339;SDS011;26044;50.864;20.658;2022-08-20T07:31:01;17.67;;;7.05;;
40339;SDS011;26044;50.864;20.658;2022-08-20T07:33:47;23.23;;;8.60;;
40339;SDS011;26044;50.864;20.658;2022-08-20T07:36:15;16.60;;;7.40;;
40339;SDS011;26044;50.864;20.658;2022-08-20T07:38:43;17.92;;;7.68;;
40339;SDS011;26044;50.864;20.658;2022-08-20T07:41:14;19.42;;;7.60;;
40339;SDS011;26044;50.864;20.658;2022-08-20T07:43:41;17.30;;;6.88;;
40339;SDS011;26044;50.864;20.658;2022-08-20T07:46:11;15.05;;;6.78;;
40339;SDS011;26044;50.864;20.658;2022-08-20T07:48:46;17.35;;;6.50;;
40339;SDS011;26044;50.864;20.658;2022-08-20T07:51:18;16.92;;;6.55;;
40339;SDS011;26044;50.864;20.658;2022-08-20T07:53:47;15.23;;;6.85;;
40339;SDS011;26044;50.864;20.658;2022-08-20T07:56:16;17.15;;;6.35;;
40339;SDS011;26044;50.864;20.658;2022-08-20T07:58:47;15.65;;;5.88;;
40339;SDS011;26044;50.864;20.658;2022-08-20T08:01:18;14.43;;;6.50;;
40339;SDS011;26044;50.864;20.658;2022-08-20T08:03:47;22.25;;;6.47;;
40339;SDS011;26044;50.864;20.658;2022-08-20T08:06:17;16.52;;;6.22;;
40339;SDS011;26044;50.864;20.658;2022-08-20T08:09:06;18.40;;;6.28;;
40339;SDS011;26044;50.864;20.658;2022-08-20T08:11:35;19.70;;;6.22;;
40339;SDS011;26044;50.864;20.658;2022-08-20T08:14:05;16.38;;;6.22;;
40339;SDS011;26044;50.864;20.658;2022-08-20T08:19:02;11.75;;;5.40;;
40339;SDS011;26044;50.864;20.658;2022-08-20T08:23:58;18.67;;;5.78;;
40339;SDS011;26044;50.864;20.658;2022-08-20T08:26:25;11.73;;;4.88;;
40339;SDS011;26044;50.864;20.658;2022-08-20T08:28:54;14.80;;;5.53;;
40339;SDS011;26044;50.864;20.658;2022-08-20T08:31:21;18.05;;;5.28;;
40339;SDS011;26044;50.864;20.658;2022-08-20T08:33:48;14.38;;;5.75;;
40339;SDS011;26044;50.864;20.658;2022-08-20T08:36:15;13.02;;;4.85;;
40339;SDS011;26044;50.864;20.658;2022-08-20T08:38:42;22.67;;;5.68;;
40339;SDS011;26044;50.864;20.658;2022-08-20T08:44:08;15.05;;;5.15;;
40339;SDS011;26044;50.864;20.658;2022-08-20T08:46:42;15.05;;;4.78;;
40339;SDS011;26044;50.864;20.658;2022-08-20T08:49:12;12.45;;;4.93;;
40339;SDS011;26044;50.864;20.658;2022-08-20T08:54:19;12.10;;;4.75;;
40339;SDS011;26044;50.864;20.658;2022-08-20T08:56:50;10.43;;;5.07;;
40339;SDS011;26044;50.864;20.658;2022-08-20T08:59:18;17.98;;;5.35;;
40339;SDS011;26044;50.864;20.658;2022-08-20T09:01:48;14.90;;;4.95;;
40339;SDS011;26044;50.864;20.658;2022-08-20T09:04:31;18.42;;;4.97;;
40339;SDS011;26044;50.864;20.658;2022-08-20T09:07:03;18.27;;;5.40;;
40339;SDS011;26044;50.864;20.658;2022-08-20T09:09:37;15.15;;;4.90;;
40339;SDS011;26044;50.864;20.658;2022-08-20T09:12:08;12.50;;;4.57;;
40339;SDS011;26044;50.864;20.658;2022-08-20T09:14:39;16.80;;;5.15;;
40339;SDS011;26044;50.864;20.658;2022-08-20T09:17:06;12.55;;;4.93;;
40339;SDS011;26044;50.864;20.658;2022-08-20T09:19:33;13.05;;;4.72;;
40339;SDS011;26044;50.864;20.658;2022-08-20T09:22:06;11.30;;;4.40;;
40339;SDS011;26044;50.864;20.658;2022-08-20T09:24:37;11.55;;;4.55;;
40339;SDS011;26044;50.864;20.658;2022-08-20T09:27:04;12.32;;;4.70;;
40339;SDS011;26044;50.864;20.658;2022-08-20T09:29:32;16.67;;;5.15;;
40339;SDS011;26044;50.864;20.658;2022-08-20T09:34:38;17.95;;;5.15;;
40339;SDS011;26044;50.864;20.658;2022-08-20T09:37:06;12.80;;;4.57;;
40339;SDS011;26044;50.864;20.658;2022-08-20T09:39:36;13.82;;;5.07;;
40339;SDS011;26044;50.864;20.658;2022-08-20T09:42:10;16.13;;;5.65;;
40339;SDS011;26044;50.864;20.658;2022-08-20T09:44:39;17.13;;;5.45;;
40339;SDS011;26044;50.864;20.658;2022-08-20T09:47:06;16.77;;;5.38;;
40339;SDS011;26044;50.864;20.658;2022-08-20T09:49:33;14.73;;;4.93;;
40339;SDS011;26044;50.864;20.658;2022-08-20T09:52:02;15.03;;;5.07;;
40339;SDS011;26044;50.864;20.658;2022-08-20T09:54:31;13.18;;;4.80;;
40339;SDS011;26044;50.864;20.658;2022-08-20T09:57:01;15.75;;;4.70;;
40339;SDS011;26044;50.864;20.658;2022-08-20T09:59:30;14.38;;;5.00;;
40339;SDS011;26044;50.864;20.658;2022-08-20T10:01:58;15.98;;;5.10;;
40339;SDS011;26044;50.864;20.658;2022-08-20T10:04:25;13.73;;;4.47;;
40339;SDS011;26044;50.864;20.658;2022-08-20T10:06:52;18.05;;;5.28;;
40339;SDS011;26044;50.864;20.658;2022-08-20T10:09:19;17.25;;;5.47;;
40339;SDS011;26044;50.864;20.658;2022-08-20T10:11:46;14.63;;;4.88;;
40339;SDS011;26044;50.864;20.658;2022-08-20T10:14:12;18.75;;;5.22;;
40339;SDS011;26044;50.864;20.658;2022-08-20T10:16:39;16.85;;;4.75;;
40339;SDS011;26044;50.864;20.658;2022-08-20T10:19:06;16.63;;;5.07;;
40339;SDS011;26044;50.864;20.658;2022-08-20T10:21:33;16.52;;;4.80;;
40339;SDS011;26044;50.864;20.658;2022-08-20T10:24:04;14.63;;;4.90;;
40339;SDS011;26044;50.864;20.658;2022-08-20T10:26:30;16.95;;;5.13;;
40339;SDS011;26044;50.864;20.658;2022-08-20T10:28:57;11.80;;;5.25;;
40339;SDS011;26044;50.864;20.658;2022-08-20T10:31:24;14.02;;;5.10;;
40339;SDS011;26044;50.864;20.658;2022-08-20T10:33:51;14.68;;;4.88;;
40339;SDS011;26044;50.864;20.658;2022-08-20T10:36:17;15.73;;;4.95;;
40339;SDS011;26044;50.864;20.658;2022-08-20T10:38:44;12.07;;;4.70;;
40339;SDS011;26044;50.864;20.658;2022-08-20T10:41:11;14.10;;;4.63;;
40339;SDS011;26044;50.864;20.658;2022-08-20T10:43:38;16.48;;;5.05;;
40339;SDS011;26044;50.864;20.658;2022-08-20T10:46:05;16.58;;;5.05;;
40339;SDS011;26044;50.864;20.658;2022-08-20T10:48:32;16.95;;;4.97;;
40339;SDS011;26044;50.864;20.658;2022-08-20T10:50:58;17.35;;;4.88;;
40339;SDS011;26044;50.864;20.658;2022-08-20T10:53:25;12.77;;;4.70;;
40339;SDS011;26044;50.864;20.658;2022-08-20T10:55:53;15.85;;;5.63;;
40339;SDS011;26044;50.864;20.658;2022-08-20T10:58:20;12.65;;;4.50;;
40339;SDS011;26044;50.864;20.658;2022-08-20T11:00:49;15.13;;;4.85;;
40339;SDS011;26044;50.864;20.658;2022-08-20T11:03:16;17.67;;;5.25;;
40339;SDS011;26044;50.864;20.658;2022-08-20T11:05:43;14.45;;;4.82;;
40339;SDS011;26044;50.864;20.658;2022-08-20T11:08:11;19.85;;;4.80;;
40339;SDS011;26044;50.864;20.658;2022-08-20T11:10:38;18.27;;;6.05;;
40339;SDS011;26044;50.864;20.658;2022-08-20T11:13:06;17.85;;;7.20;;
40339;SDS011;26044;50.864;20.658;2022-08-20T11:15:35;15.55;;;4.95;;
40339;SDS011;26044;50.864;20.658;2022-08-20T11:18:04;14.32;;;5.18;;
40339;SDS011;26044;50.864;20.658;2022-08-20T11:20:32;20.65;;;5.45;;
40339;SDS011;26044;50.864;20.658;2022-08-20T11:22:59;17.30;;;5.80;;
40339;SDS011;26044;50.864;20.658;2022-08-20T11:25:26;20.73;;;5.40;;
40339;SDS011;26044;50.864;20.658;2022-08-20T11:27:54;16.77;;;4.88;;
40339;SDS011;26044;50.864;20.658;2022-08-20T11:30:29;18.17;;;5.55;;
40339;SDS011;26044;50.864;20.658;2022-08-20T11:32:58;19.25;;;6.55;;
40339;SDS011;26044;50.864;20.658;2022-08-20T11:35:26;13.45;;;4.25;;
40339;SDS011;26044;50.864;20.658;2022-08-20T11:38:14;13.20;;;5.05;;
40339;SDS011;26044;50.864;20.658;2022-08-20T11:40:41;11.93;;;4.03;;
40339;SDS011;26044;50.864;20.658;2022-08-20T11:43:08;14.48;;;4.20;;
40339;SDS011;26044;50.864;20.658;2022-08-20T11:45:43;11.98;;;4.10;;
40339;SDS011;26044;50.864;20.658;2022-08-20T11:48:13;21.70;;;6.30;;
40339;SDS011;26044;50.864;20.658;2022-08-20T11:50:42;18.53;;;4.80;;
40339;SDS011;26044;50.864;20.658;2022-08-20T11:53:09;13.13;;;4.57;;
40339;SDS011;26044;50.864;20.658;2022-08-20T11:55:36;14.70;;;4.22;;
40339;SDS011;26044;50.864;20.658;2022-08-20T11:58:04;12.35;;;4.55;;
40339;SDS011;26044;50.864;20.658;2022-08-20T12:00:32;16.83;;;4.72;;
40339;SDS011;26044;50.864;20.658;2022-08-20T12:03:03;16.33;;;5.22;;
40339;SDS011;26044;50.864;20.658;2022-08-20T12:05:35;20.33;;;5.18;;
40339;SDS011;26044;50.864;20.658;2022-08-20T12:08:02;13.88;;;4.57;;
40339;SDS011;26044;50.864;20.658;2022-08-20T12:10:30;24.60;;;10.48;;
40339;SDS011;26044;50.864;20.658;2022-08-20T12:12:57;22.42;;;7.30;;
40339;SDS011;26044;50.864;20.658;2022-08-20T12:15:24;14.50;;;5.35;;
40339;SDS011;26044;50.864;20.658;2022-08-20T12:17:52;13.80;;;4.32;;
40339;SDS011;26044;50.864;20.658;2022-08-20T12:20:21;17.38;;;4.50;;
40339;SDS011;26044;50.864;20.658;2022-08-20T12:22:48;17.67;;;5.10;;
40339;SDS011;26044;50.864;20.658;2022-08-20T12:25:15;12.32;;;4.43;;
40339;SDS011;26044;50.864;20.658;2022-08-20T12:27:42;11.63;;;5.03;;
40339;SDS011;26044;50.864;20.658;2022-08-20T12:30:12;13.93;;;4.65;;
40339;SDS011;26044;50.864;20.658;2022-08-20T12:32:42;13.48;;;4.75;;
40339;SDS011;26044;50.864;20.658;2022-08-20T12:35:10;10.98;;;4.57;;
40339;SDS011;26044;50.864;20.658;2022-08-20T12:37:39;18.25;;;5.72;;
40339;SDS011;26044;50.864;20.658;2022-08-20T12:40:07;16.65;;;6.72;;
40339;SDS011;26044;50.864;20.658;2022-08-20T12:42:37;29.55;;;14.00;;
40339;SDS011;26044;50.864;20.658;2022-08-20T12:45:04;14.13;;;5.10;;
40339;SDS011;26044;50.864;20.658;2022-08-20T12:47:35;17.42;;;4.88;;
40339;SDS011;26044;50.864;20.658;2022-08-20T12:50:06;20.08;;;5.85;;
40339;SDS011;26044;50.864;20.658;2022-08-20T12:52:38;13.45;;;4.80;;
40339;SDS011;26044;50.864;20.658;2022-08-20T12:55:05;15.75;;;5.38;;
40339;SDS011;26044;50.864;20.658;2022-08-20T12:57:35;17.38;;;4.97;;
40339;SDS011;26044;50.864;20.658;2022-08-20T13:00:08;20.17;;;5.05;;
40339;SDS011;26044;50.864;20.658;2022-08-20T13:02:37;17.38;;;5.35;;
40339;SDS011;26044;50.864;20.658;2022-08-20T13:05:09;17.75;;;5.38;;
40339;SDS011;26044;50.864;20.658;2022-08-20T13:07:38;18.15;;;5.72;;
40339;SDS011;26044;50.864;20.658;2022-08-20T13:10:06;15.43;;;5.10;;
40339;SDS011;26044;50.864;20.658;2022-08-20T13:12:34;16.67;;;5.05;;
40339;SDS011;26044;50.864;20.658;2022-08-20T13:15:02;10.73;;;4.65;;
40339;SDS011;26044;50.864;20.658;2022-08-20T13:17:29;14.75;;;4.78;;
40339;SDS011;26044;50.864;20.658;2022-08-20T13:20:09;17.02;;;5.35;;
40339;SDS011;26044;50.864;20.658;2022-08-20T13:22:39;12.57;;;4.75;;
40339;SDS011;26044;50.864;20.658;2022-08-20T13:25:06;18.23;;;5.18;;
40339;SDS011;26044;50.864;20.658;2022-08-20T13:27:34;27.85;;;6.80;;
40339;SDS011;26044;50.864;20.658;2022-08-20T13:30:05;13.93;;;5.57;;
40339;SDS011;26044;50.864;20.658;2022-08-20T13:32:33;19.35;;;5.90;;
40339;SDS011;26044;50.864;20.658;2022-08-20T13:35:00;17.02;;;5.10;;
40339;SDS011;26044;50.864;20.658;2022-08-20T13:37:27;13.18;;;4.43;;
40339;SDS011;26044;50.864;20.658;2022-08-20T13:39:54;15.40;;;5.22;;
40339;SDS011;26044;50.864;20.658;2022-08-20T13:42:22;15.00;;;4.93;;
40339;SDS011;26044;50.864;20.658;2022-08-20T13:44:50;14.90;;;5.30;;
40339;SDS011;26044;50.864;20.658;2022-08-20T13:47:19;14.38;;;5.40;;
40339;SDS011;26044;50.864;20.658;2022-08-20T13:49:54;14.85;;;5.18;;
40339;SDS011;26044;50.864;20.658;2022-08-20T13:52:23;13.00;;;4.80;;
40339;SDS011;26044;50.864;20.658;2022-08-20T13:54:52;19.40;;;5.32;;
40339;SDS011;26044;50.864;20.658;2022-08-20T13:57:20;14.35;;;5.07;;
40339;SDS011;26044;50.864;20.658;2022-08-20T13:59:48;13.75;;;4.80;;
40339;SDS011;26044;50.864;20.658;2022-08-20T14:02:16;12.10;;;4.65;;
40339;SDS011;26044;50.864;20.658;2022-08-20T14:04:44;16.00;;;5.90;;
40339;SDS011;26044;50.864;20.658;2022-08-20T14:07:17;19.85;;;5.65;;
40339;SDS011;26044;50.864;20.658;2022-08-20T14:09:48;13.90;;;5.32;;
40339;SDS011;26044;50.864;20.658;2022-08-20T14:12:19;22.90;;;7.40;;
40339;SDS011;26044;50.864;20.658;2022-08-20T14:14:48;15.35;;;6.05;;
40339;SDS011;26044;50.864;20.658;2022-08-20T14:17:21;17.60;;;6.10;;
40339;SDS011;26044;50.864;20.658;2022-08-20T14:19:54;14.38;;;5.43;;
40339;SDS011;26044;50.864;20.658;2022-08-20T14:22:42;12.48;;;4.85;;
40339;SDS011;26044;50.864;20.658;2022-08-20T14:25:10;16.10;;;5.10;;
40339;SDS011;26044;50.864;20.658;2022-08-20T14:27:39;15.55;;;4.57;;
40339;SDS011;26044;50.864;20.658;2022-08-20T14:30:08;13.93;;;4.57;;
40339;SDS011;26044;50.864;20.658;2022-08-20T14:32:38;16.50;;;5.50;;
40339;SDS011;26044;50.864;20.658;2022-08-20T14:35:05;14.02;;;4.43;;
40339;SDS011;26044;50.864;20.658;2022-08-20T14:37:34;13.68;;;5.05;;
40339;SDS011;26044;50.864;20.658;2022-08-20T14:40:08;14.10;;;5.07;;
40339;SDS011;26044;50.864;20.658;2022-08-20T14:42:38;10.75;;;4.82;;
40339;SDS011;26044;50.864;20.658;2022-08-20T14:45:06;17.85;;;7.28;;
40339;SDS011;26044;50.864;20.658;2022-08-20T14:50:17;18.67;;;6.03;;
40339;SDS011;26044;50.864;20.658;2022-08-20T14:52:50;29.13;;;11.75;;
40339;SDS011;26044;50.864;20.658;2022-08-20T14:55:19;20.17;;;8.35;;
40339;SDS011;26044;50.864;20.658;2022-08-20T14:57:47;17.83;;;7.18;;
40339;SDS011;26044;50.864;20.658;2022-08-20T15:00:16;21.05;;;7.05;;
40339;SDS011;26044;50.864;20.658;2022-08-20T15:02:45;18.92;;;6.78;;
40339;SDS011;26044;50.864;20.658;2022-08-20T15:05:13;17.33;;;6.22;;
40339;SDS011;26044;50.864;20.658;2022-08-20T15:07:44;19.15;;;7.28;;
40339;SDS011;26044;50.864;20.658;2022-08-20T15:10:15;11.57;;;5.40;;
40339;SDS011;26044;50.864;20.658;2022-08-20T15:12:44;14.75;;;6.60;;